Time;durP1;ratioP1;P1;durP2;ratioP2;P2;SDS_P1;SDS_P2;PMS_P1;PMS_P2;Temp;Humidity;BMP_temperature;BMP_pressure;BME280_temperature;BME280_humidity;BME280_pressure;Samples;Min_cycle;Max_cycle;Signal;HPM_P1;HPM_P2
2023/06/06 00:02:11;;;;;;;24.30;20.40;;;;;;;;;;5008089;28;20112;-86
2023/06/06 00:04:37;;;;;;;25.20;21.38;;;;;;;;;;5011448;28;20049;-87
2023/06/06 00:07:08;;;;;;;23.15;20.55;;;;;;;;;;5038638;28;20353;-87
2023/06/06 00:09:37;;;;;;;24.60;19.95;;;;;;;;;;5013483;28;20395;-86
2023/06/06 00:12:04;;;;;;;22.45;19.40;;;;;;;;;;5031508;28;20033;-86
2023/06/06 00:14:31;;;;;;;20.98;18.33;;;;;;;;;;5044345;28;20045;-86
2023/06/06 00:16:58;;;;;;;21.88;18.58;;;;;;;;;;5022571;28;20040;-86
2023/06/06 00:19:24;;;;;;;23.45;17.65;;;;;;;;;;5016674;28;20045;-87
2023/06/06 00:21:50;;;;;;;20.25;16.45;;;;;;;;;;5036341;28;20715;-87
2023/06/06 00:24:17;;;;;;;23.02;15.50;;;;;;;;;;5045457;28;20044;-87
2023/06/06 00:26:43;;;;;;;17.60;15.50;;;;;;;;;;5044151;28;20531;-87
2023/06/06 00:29:10;;;;;;;19.65;15.95;;;;;;;;;;5041384;28;20480;-87
2023/06/06 00:31:36;;;;;;;19.83;15.80;;;;;;;;;;5038565;28;20124;-88
2023/06/06 00:34:02;;;;;;;19.17;14.68;;;;;;;;;;5034955;28;20087;-87
2023/06/06 00:36:28;;;;;;;20.88;15.00;;;;;;;;;;5042422;28;20067;-87
2023/06/06 00:38:54;;;;;;;17.83;13.85;;;;;;;;;;5022099;28;20041;-87
2023/06/06 00:41:20;;;;;;;17.27;13.45;;;;;;;;;;5023239;28;20082;-87
2023/06/06 00:43:46;;;;;;;17.55;13.75;;;;;;;;;;5010352;28;20468;-87
2023/06/06 00:46:13;;;;;;;15.85;12.90;;;;;;;;;;5020993;28;20037;-87
2023/06/06 00:48:39;;;;;;;15.50;12.82;;;;;;;;;;5009081;28;20118;-87
2023/06/06 00:51:08;;;;;;;16.73;12.25;;;;;;;;;;5030308;28;20044;-87
2023/06/06 00:53:37;;;;;;;15.93;11.25;;;;;;;;;;5030372;28;20077;-87
2023/06/06 00:56:03;;;;;;;15.05;11.07;;;;;;;;;;5030029;28;20090;-87
2023/06/06 00:58:29;;;;;;;13.88;10.88;;;;;;;;;;5009357;28;20041;-87
2023/06/06 01:00:56;;;;;;;13.10;10.00;;;;;;;;;;5031234;28;22566;-87
2023/06/06 01:03:24;;;;;;;14.27;9.93;;;;;;;;;;5022338;28;20510;-87
2023/06/06 01:05:53;;;;;;;14.05;11.52;;;;;;;;;;5024811;28;20103;-87
2023/06/06 01:08:20;;;;;;;15.45;10.18;;;;;;;;;;5044886;28;20098;-86
2023/06/06 01:10:46;;;;;;;11.20;9.52;;;;;;;;;;5042018;28;20045;-87
2023/06/06 01:13:13;;;;;;;11.10;9.50;;;;;;;;;;5042476;28;20041;-86
2023/06/06 01:15:45;;;;;;;13.98;9.18;;;;;;;;;;5040163;28;20078;-86
2023/06/06 01:18:12;;;;;;;12.52;8.65;;;;;;;;;;5045182;28;20495;-86
2023/06/06 01:20:39;;;;;;;12.20;9.27;;;;;;;;;;5045342;28;20048;-86
2023/06/06 01:23:05;;;;;;;10.32;7.78;;;;;;;;;;5043528;28;20041;-86
2023/06/06 01:25:34;;;;;;;12.32;8.63;;;;;;;;;;5035839;28;20049;-87
2023/06/06 01:28:00;;;;;;;10.43;7.78;;;;;;;;;;5018126;28;20087;-87
2023/06/06 01:30:27;;;;;;;10.07;7.25;;;;;;;;;;5034205;28;20032;-87
2023/06/06 01:32:53;;;;;;;10.73;6.63;;;;;;;;;;5026044;28;20450;-87
2023/06/06 01:35:38;;;;;;;11.73;7.13;;;;;;;;;;5046605;28;20093;-87
2023/06/06 01:38:07;;;;;;;9.43;6.72;;;;;;;;;;5027933;28;20039;-87
2023/06/06 01:40:33;;;;;;;8.68;7.05;;;;;;;;;;5044054;28;20041;-87
2023/06/06 01:42:59;;;;;;;12.52;7.25;;;;;;;;;;5042362;28;20044;-86
2023/06/06 01:45:27;;;;;;;10.68;7.20;;;;;;;;;;5012604;28;20036;-87
2023/06/06 01:47:53;;;;;;;10.85;6.78;;;;;;;;;;5030855;28;20383;-87
2023/06/06 01:50:19;;;;;;;13.68;8.05;;;;;;;;;;5042194;28;20567;-86
2023/06/06 01:52:45;;;;;;;11.70;7.45;;;;;;;;;;5020063;28;20140;-86
2023/06/06 01:55:11;;;;;;;11.77;7.57;;;;;;;;;;5013339;28;20115;-87
2023/06/06 01:57:38;;;;;;;11.55;7.55;;;;;;;;;;5026547;28;20522;-87
2023/06/06 02:00:07;;;;;;;10.23;7.90;;;;;;;;;;5045843;28;20454;-87
2023/06/06 02:02:33;;;;;;;10.98;7.10;;;;;;;;;;5025418;28;20036;-87
2023/06/06 02:04:59;;;;;;;13.35;7.60;;;;;;;;;;5039769;28;20491;-86
2023/06/06 02:07:26;;;;;;;12.18;7.25;;;;;;;;;;5042749;28;20079;-86
2023/06/06 02:09:52;;;;;;;15.73;8.10;;;;;;;;;;5043833;28;20134;-87
2023/06/06 02:12:19;;;;;;;14.43;7.50;;;;;;;;;;5031489;28;20052;-87
2023/06/06 02:14:45;;;;;;;10.93;7.75;;;;;;;;;;5023219;28;20059;-87
2023/06/06 02:17:11;;;;;;;11.50;6.65;;;;;;;;;;5042104;28;20055;-86
2023/06/06 02:19:38;;;;;;;9.77;6.57;;;;;;;;;;5038588;28;20041;-86
2023/06/06 02:22:04;;;;;;;9.15;6.32;;;;;;;;;;5030673;28;20135;-86
2023/06/06 02:24:30;;;;;;;9.35;6.63;;;;;;;;;;5025869;28;20128;-86
2023/06/06 02:26:56;;;;;;;12.07;6.90;;;;;;;;;;5040945;28;20036;-86
2023/06/06 02:29:23;;;;;;;9.10;6.75;;;;;;;;;;5050107;28;20043;-87
2023/06/06 02:31:53;;;;;;;10.80;6.95;;;;;;;;;;5048331;28;20076;-86
2023/06/06 02:34:19;;;;;;;11.07;6.78;;;;;;;;;;5033187;28;20487;-86
2023/06/06 02:36:45;;;;;;;11.55;7.03;;;;;;;;;;5030339;28;20621;-86
2023/06/06 02:39:11;;;;;;;8.65;6.53;;;;;;;;;;5045361;28;20072;-86
2023/06/06 02:41:37;;;;;;;13.20;7.70;;;;;;;;;;5026564;28;20041;-86
2023/06/06 02:44:03;;;;;;;10.15;7.30;;;;;;;;;;5021359;28;22221;-86
2023/06/06 02:46:30;;;;;;;12.05;7.93;;;;;;;;;;5047458;28;20398;-87
2023/06/06 02:48:56;;;;;;;11.63;7.35;;;;;;;;;;5039388;28;20137;-86
2023/06/06 02:51:23;;;;;;;12.02;7.90;;;;;;;;;;5033262;28;20040;-86
2023/06/06 02:53:52;;;;;;;10.75;7.32;;;;;;;;;;5038824;28;20045;-86
2023/06/06 02:56:18;;;;;;;11.63;8.20;;;;;;;;;;5029125;28;20044;-86
2023/06/06 02:58:44;;;;;;;11.88;7.45;;;;;;;;;;5039730;28;20040;-86
2023/06/06 03:01:12;;;;;;;13.65;8.38;;;;;;;;;;5033773;28;20136;-86
2023/06/06 03:03:38;;;;;;;13.20;8.13;;;;;;;;;;5016553;28;20059;-86
2023/06/06 03:06:06;;;;;;;16.13;8.32;;;;;;;;;;5048672;28;20564;-86
2023/06/06 03:08:33;;;;;;;14.82;8.60;;;;;;;;;;5026001;28;20040;-86
2023/06/06 03:10:59;;;;;;;12.65;8.43;;;;;;;;;;5042949;28;20102;-86
2023/06/06 03:13:25;;;;;;;12.77;8.55;;;;;;;;;;5042553;28;20047;-86
2023/06/06 03:15:51;;;;;;;16.90;9.27;;;;;;;;;;5039701;28;20129;-86
2023/06/06 03:18:20;;;;;;;17.33;9.10;;;;;;;;;;5046315;28;20068;-86
2023/06/06 03:20:46;;;;;;;14.05;8.38;;;;;;;;;;5039842;28;20044;-86
2023/06/06 03:23:12;;;;;;;13.48;8.52;;;;;;;;;;5044806;28;20426;-86
2023/06/06 03:25:43;;;;;;;12.52;7.85;;;;;;;;;;5042784;28;20045;-86
2023/06/06 03:28:09;;;;;;;15.32;8.88;;;;;;;;;;5041189;28;20040;-86
2023/06/06 03:30:38;;;;;;;15.75;9.07;;;;;;;;;;5016846;28;20375;-86
2023/06/06 03:33:05;;;;;;;13.23;8.60;;;;;;;;;;5037767;28;24101;-86
2023/06/06 03:35:35;;;;;;;19.42;10.25;;;;;;;;;;5031260;28;20039;-86
2023/06/06 03:38:01;;;;;;;15.32;9.65;;;;;;;;;;5027488;28;20033;-86
2023/06/06 03:40:27;;;;;;;19.35;10.15;;;;;;;;;;5045059;28;20053;-86
2023/06/06 03:42:53;;;;;;;15.55;9.95;;;;;;;;;;5047860;28;20041;-86
2023/06/06 03:45:21;;;;;;;19.77;9.90;;;;;;;;;;5038202;28;20060;-86
2023/06/06 03:47:47;;;;;;;14.65;10.15;;;;;;;;;;5037902;28;20116;-86
2023/06/06 03:50:13;;;;;;;18.05;10.52;;;;;;;;;;5045567;28;20087;-86
2023/06/06 03:52:43;;;;;;;21.13;10.18;;;;;;;;;;5021728;28;20110;-86
2023/06/06 03:55:09;;;;;;;22.02;10.82;;;;;;;;;;5050521;28;20068;-86
2023/06/06 03:57:38;;;;;;;17.15;9.93;;;;;;;;;;5028662;28;20036;-86
2023/06/06 04:00:11;;;;;;;16.42;10.40;;;;;;;;;;5010566;28;20037;-86
2023/06/06 04:02:38;;;;;;;16.83;10.50;;;;;;;;;;5024882;28;20049;-86
2023/06/06 04:05:05;;;;;;;16.00;10.43;;;;;;;;;;5028813;28;20041;-86
2023/06/06 04:07:31;;;;;;;17.65;10.32;;;;;;;;;;5028641;28;20510;-86
2023/06/06 04:09:58;;;;;;;17.88;10.82;;;;;;;;;;5043936;28;20403;-86
2023/06/06 04:12:24;;;;;;;16.52;10.05;;;;;;;;;;5038117;28;20518;-86
2023/06/06 04:14:50;;;;;;;14.60;9.65;;;;;;;;;;5042838;28;20115;-86
2023/06/06 04:17:17;;;;;;;18.40;10.15;;;;;;;;;;5008866;28;20077;-86
2023/06/06 04:19:43;;;;;;;15.98;9.75;;;;;;;;;;5034531;28;20044;-86
2023/06/06 04:22:09;;;;;;;14.90;10.23;;;;;;;;;;5023507;28;20037;-87
2023/06/06 04:24:36;;;;;;;15.30;10.02;;;;;;;;;;5047431;28;20124;-87
2023/06/06 04:27:03;;;;;;;17.88;10.68;;;;;;;;;;5033948;28;20041;-87
2023/06/06 04:29:32;;;;;;;15.02;9.38;;;;;;;;;;5047822;28;20043;-86
2023/06/06 04:31:59;;;;;;;15.25;9.85;;;;;;;;;;5025066;28;20051;-87
2023/06/06 04:34:29;;;;;;;12.48;9.73;;;;;;;;;;5013983;28;20055;-87
2023/06/06 04:37:01;;;;;;;17.58;10.10;;;;;;;;;;5043107;28;21922;-86
2023/06/06 04:39:28;;;;;;;16.73;10.13;;;;;;;;;;5029785;28;20036;-86
2023/06/06 04:41:56;;;;;;;15.57;10.07;;;;;;;;;;5038364;28;20479;-86
2023/06/06 04:44:23;;;;;;;19.52;10.40;;;;;;;;;;5052807;28;20179;-86
2023/06/06 04:46:52;;;;;;;19.60;10.70;;;;;;;;;;5044933;28;20044;-86
2023/06/06 04:49:21;;;;;;;19.52;10.65;;;;;;;;;;5045433;28;20043;-86
2023/06/06 04:51:47;;;;;;;18.02;10.70;;;;;;;;;;5040296;28;20127;-86
2023/06/06 04:54:13;;;;;;;15.55;10.20;;;;;;;;;;5045321;28;20044;-86
2023/06/06 04:56:40;;;;;;;17.15;10.27;;;;;;;;;;5055507;28;20397;-87
2023/06/06 04:59:06;;;;;;;17.55;10.05;;;;;;;;;;5032378;28;20041;-86
2023/06/06 05:01:34;;;;;;;16.42;9.38;;;;;;;;;;5022445;28;20089;-86
2023/06/06 05:04:01;;;;;;;14.73;9.75;;;;;;;;;;5014409;28;20088;-87
2023/06/06 05:06:28;;;;;;;19.17;9.80;;;;;;;;;;5025933;28;20041;-86
2023/06/06 05:08:54;;;;;;;16.40;9.65;;;;;;;;;;5022277;28;20533;-86
2023/06/06 05:11:20;;;;;;;15.02;9.02;;;;;;;;;;5042565;28;20072;-86
2023/06/06 05:13:46;;;;;;;13.98;8.73;;;;;;;;;;5018737;28;20037;-86
2023/06/06 05:16:13;;;;;;;13.38;9.60;;;;;;;;;;5032342;28;20037;-86
2023/06/06 05:18:40;;;;;;;12.90;8.93;;;;;;;;;;5029926;28;20132;-87
2023/06/06 05:21:06;;;;;;;13.57;9.15;;;;;;;;;;5053900;28;20403;-86
2023/06/06 05:23:32;;;;;;;12.90;9.15;;;;;;;;;;5026163;28;20059;-85
2023/06/06 05:25:58;;;;;;;15.85;9.30;;;;;;;;;;5032269;28;20033;-86
2023/06/06 05:28:25;;;;;;;13.13;8.95;;;;;;;;;;5039241;28;20047;-86
2023/06/06 05:30:52;;;;;;;16.08;9.68;;;;;;;;;;5045740;28;21944;-85
2023/06/06 05:33:18;;;;;;;15.60;8.93;;;;;;;;;;5043191;28;20494;-85
2023/06/06 05:35:46;;;;;;;19.70;10.23;;;;;;;;;;5020866;28;20086;-86
2023/06/06 05:38:12;;;;;;;15.60;9.63;;;;;;;;;;5047366;28;20047;-86
2023/06/06 05:44:01;;;;;;;17.52;9.52;;;;;;;;;;5960309;22;20043;-86
2023/06/06 05:46:27;;;;;;;12.32;7.85;;;;;;;;;;5038092;28;20079;-86
2023/06/06 05:48:53;;;;;;;12.05;7.47;;;;;;;;;;5021743;28;20139;-85
2023/06/06 05:57:53;;;;;;;15.82;6.95;;;;;;;;;;5033382;22;20109;-85
2023/06/06 06:04:50;;;;;;;;;;;;;;;;;;;;;
2023/06/06 06:14:46;;;;;;;16.27;6.95;;;;;;;;;;4958956;28;20050;-86
2023/06/06 06:24:50;;;;;;;14.05;7.60;;;;;;;;;;4994038;28;20469;-86
2023/06/06 06:28:20;;;;;;;;;;;;;;;;;;;;;
2023/06/06 06:31:03;;;;;;;;;;;;;;;;;;;;;
2023/06/06 06:34:27;;;;;;;;;;;;;;;;;;;;;
2023/06/06 06:45:00;;;;;;;;;;;;;;;;;;;;;
2023/06/06 06:48:16;;;;;;;14.73;8.57;;;;;;;;;;4828330;28;20076;-86
2023/06/06 07:08:42;;;;;;;;;;;;;;;;;;;;;
2023/06/06 07:15:27;;;;;;;14.15;8.27;;;;;;;;;;4789596;29;20533;-86
2023/06/06 07:28:58;;;;;;;13.77;8.80;;;;;;;;;;4849226;28;20048;-86
2023/06/06 07:39:01;;;;;;;;;;;;;;;;;;;;;
2023/06/06 07:45:36;;;;;;;17.02;12.23;;;;;;;;;;4892248;29;20614;-86
2023/06/06 07:58:34;;;;;;;16.73;9.55;;;;;;;;;;5049859;28;20135;-86
2023/06/06 08:01:34;;;;;;;17.50;12.85;;;;;;;;;;4996120;28;20062;-86
2023/06/06 08:04:53;;;;;;;15.25;12.57;;;;;;;;;;4987175;28;20053;-86
2023/06/06 08:08:01;;;;;;;12.50;10.02;;;;;;;;;;4937686;28;20082;-86
2023/06/06 08:11:38;;;;;;;14.90;8.43;;;;;;;;;;4915475;29;20086;-86
2023/06/06 08:14:57;;;;;;;13.38;6.13;;;;;;;;;;4862479;29;20104;-86
2023/06/06 08:20:56;;;;;;;11.82;5.63;;;;;;;;;;4837475;29;20129;-86
2023/06/06 08:30:57;;;;;;;;;;;;;;;;;;;;;
2023/06/06 08:43:40;;;;;;;;;;;;;;;;;;;;;
2023/06/06 08:57:43;;;;;;;5.85;4.30;;;;;;;;;;4885634;29;20086;-85
2023/06/06 09:00:54;;;;;;;;;;;;;;;;;;;;;
2023/06/06 09:04:06;;;;;;;9.32;4.93;;;;;;;;;;4847666;29;20072;-86
2023/06/06 09:21:06;;;;;;;8.02;4.47;;;;;;;;;;4890226;29;20386;-86
2023/06/06 09:24:05;;;;;;;8.15;4.50;;;;;;;;;;4912355;29;20474;-86
2023/06/06 09:37:16;;;;;;;6.72;4.25;;;;;;;;;;4906419;28;20076;-86
2023/06/06 09:40:22;;;;;;;;;;;;;;;;;;;;;
2023/06/06 09:46:42;;;;;;;7.50;4.32;;;;;;;;;;4931405;28;20047;-85
2023/06/06 09:49:27;;;;;;;7.75;4.80;;;;;;;;;;4923839;29;20043;-86
2023/06/06 09:52:17;;;;;;;9.20;4.80;;;;;;;;;;4893492;29;20103;-86
2023/06/06 09:55:35;;;;;;;;;;;;;;;;;;;;;
2023/06/06 10:01:55;;;;;;;8.82;4.30;;;;;;;;;;4955068;28;20054;-86
2023/06/06 10:05:27;;;;;;;;;;;;;;;;;;;;;
2023/06/06 10:08:41;;;;;;;10.20;5.63;;;;;;;;;;4917611;28;20066;-85
2023/06/06 10:29:03;;;;;;;;;;;;;;;;;;;;;
2023/06/06 10:32:12;;;;;;;;;;;;;;;;;;;;;
2023/06/06 10:35:06;;;;;;;9.40;5.07;;;;;;;;;;5028206;28;20136;-86
2023/06/06 10:37:54;;;;;;;;;;;;;;;;;;;;;
2023/06/06 10:44:09;;;;;;;;;;;;;;;;;;;;;
2023/06/06 10:47:40;;;;;;;12.40;5.93;;;;;;;;;;4951774;28;20103;-86
2023/06/06 11:08:29;;;;;;;6.85;4.85;;;;;;;;;;4927879;28;20367;-85
2023/06/06 11:11:25;;;;;;;10.27;4.80;;;;;;;;;;4845525;28;20447;-85
2023/06/06 11:17:35;;;;;;;9.23;4.70;;;;;;;;;;4936794;28;20058;-86
2023/06/06 11:27:34;;;;;;;10.18;4.35;;;;;;;;;;4901330;29;20077;-86
2023/06/06 11:31:09;;;;;;;;;;;;;;;;;;;;;
2023/06/06 11:37:29;;;;;;;6.30;4.53;;;;;;;;;;4804992;29;20050;-85
2023/06/06 11:44:00;;;;;;;8.73;4.68;;;;;;;;;;4863370;29;20477;-85
2023/06/06 11:46:59;;;;;;;7.03;4.30;;;;;;;;;;4942011;28;20042;-85
2023/06/06 11:53:48;;;;;;;8.07;4.40;;;;;;;;;;4967962;28;20391;-86
2023/06/06 11:56:59;;;;;;;;;;;;;;;;;;;;;
2023/06/06 12:00:05;;;;;;;;;;;;;;;;;;;;;
2023/06/06 12:03:17;;;;;;;8.57;4.18;;;;;;;;;;5003396;28;20044;-86
2023/06/06 12:06:04;;;;;;;9.32;4.57;;;;;;;;;;4991187;28;20067;-85
2023/06/06 12:11:54;;;;;;;9.10;4.97;;;;;;;;;;4937720;28;20055;-86
2023/06/06 12:18:34;;;;;;;10.57;4.80;;;;;;;;;;4973704;28;20153;-85
2023/06/06 12:24:39;;;;;;;10.30;4.70;;;;;;;;;;5044218;28;19924;-86
2023/06/06 12:27:52;;;;;;;;;;;;;;;;;;;;;
2023/06/06 12:34:06;;;;;;;;;;;;;;;;;;;;;
2023/06/06 12:40:51;;;;;;;;;;;;;;;;;;;;;
2023/06/06 12:47:02;;;;;;;;;;;;;;;;;;;;;
2023/06/06 12:50:06;;;;;;;8.32;4.70;;;;;;;;;;5017408;28;20479;-86
2023/06/06 12:56:58;;;;;;;8.85;5.20;;;;;;;;;;4959528;28;20058;-86
2023/06/06 13:00:05;;;;;;;9.13;4.30;;;;;;;;;;4987027;28;20046;-86
2023/06/06 13:03:11;;;;;;;8.20;4.28;;;;;;;;;;4984507;28;20117;-86
2023/06/06 13:06:11;;;;;;;9.98;4.30;;;;;;;;;;4924254;28;20054;-85
2023/06/06 13:09:34;;;;;;;;;;;;;;;;;;;;;
2023/06/06 13:16:03;;;;;;;10.13;4.32;;;;;;;;;;4824162;29;20135;-86
2023/06/06 13:19:07;;;;;;;7.78;4.57;;;;;;;;;;4860403;29;20547;-86
2023/06/06 13:25:40;;;;;;;8.07;4.80;;;;;;;;;;4865066;29;20139;-85
2023/06/06 13:32:34;;;;;;;11.98;5.20;;;;;;;;;;4903286;28;20616;-86
2023/06/06 13:35:38;;;;;;;;;;;;;;;;;;;;;
2023/06/06 13:38:45;;;;;;;8.57;4.95;;;;;;;;;;4978921;28;20147;-86
2023/06/06 13:41:35;;;;;;;;;;;;;;;;;;;;;
2023/06/06 13:44:55;;;;;;;9.07;4.72;;;;;;;;;;4971947;28;20208;-86
2023/06/06 13:48:10;;;;;;;9.48;4.53;;;;;;;;;;4897894;29;20054;-86
2023/06/06 13:51:27;;;;;;;8.07;4.18;;;;;;;;;;4892485;28;20055;-86
2023/06/06 13:54:22;;;;;;;;;;;;;;;;;;;;;
2023/06/06 13:57:39;;;;;;;8.43;4.88;;;;;;;;;;4915525;28;20146;-86
2023/06/06 14:00:45;;;;;;;9.38;4.40;;;;;;;;;;4919692;29;20414;-86
2023/06/06 14:07:28;;;;;;;9.32;4.63;;;;;;;;;;4934094;28;20054;-86
2023/06/06 14:23:12;;;;;;;8.35;4.40;;;;;;;;;;5274335;22;20056;-86
2023/06/06 14:25:38;;;;;;;7.88;4.40;;;;;;;;;;5068177;28;20048;-84
2023/06/06 14:28:05;;;;;;;9.52;5.20;;;;;;;;;;5047705;28;20089;-84
2023/06/06 14:30:31;;;;;;;7.88;4.38;;;;;;;;;;5046064;28;20054;-85
2023/06/06 14:32:57;;;;;;;8.20;4.22;;;;;;;;;;5020854;28;20056;-85
2023/06/06 14:35:25;;;;;;;6.82;4.60;;;;;;;;;;5023460;28;20117;-84
2023/06/06 14:37:51;;;;;;;7.57;4.18;;;;;;;;;;5036285;28;20044;-84
2023/06/06 14:40:17;;;;;;;8.20;4.00;;;;;;;;;;5019732;28;20154;-84
2023/06/06 14:42:43;;;;;;;6.90;4.10;;;;;;;;;;4999830;28;20037;-84
2023/06/06 14:45:09;;;;;;;6.88;3.70;;;;;;;;;;5044178;28;20503;-84
2023/06/06 14:47:39;;;;;;;6.28;4.03;;;;;;;;;;5022720;28;20119;-84
2023/06/06 14:50:06;;;;;;;10.48;4.00;;;;;;;;;;5043404;28;20386;-85
2023/06/06 14:52:32;;;;;;;9.43;4.20;;;;;;;;;;5041344;28;20535;-85
2023/06/06 14:54:58;;;;;;;5.60;3.83;;;;;;;;;;5036139;28;20102;-84
2023/06/06 14:57:24;;;;;;;15.23;4.57;;;;;;;;;;5043295;28;20047;-85
2023/06/06 14:59:51;;;;;;;7.43;4.18;;;;;;;;;;5005141;28;20098;-87
2023/06/06 15:02:17;;;;;;;7.55;3.67;;;;;;;;;;5013484;28;20094;-87
2023/06/06 15:04:43;;;;;;;9.70;4.22;;;;;;;;;;5026025;28;20124;-88
2023/06/06 15:07:10;;;;;;;10.40;4.28;;;;;;;;;;5037082;28;20059;-87
2023/06/06 15:09:37;;;;;;;11.20;4.60;;;;;;;;;;5032315;28;20094;-88
2023/06/06 15:12:04;;;;;;;7.97;4.22;;;;;;;;;;5022211;28;20529;-88
2023/06/06 15:14:30;;;;;;;6.28;4.18;;;;;;;;;;5037473;28;20131;-88
2023/06/06 15:16:58;;;;;;;6.50;3.95;;;;;;;;;;5031832;28;22784;-87
2023/06/06 15:19:24;;;;;;;7.93;3.75;;;;;;;;;;5032571;28;20407;-88
2023/06/06 15:21:50;;;;;;;7.70;4.00;;;;;;;;;;5034234;28;20052;-87
2023/06/06 15:24:23;;;;;;;10.55;4.05;;;;;;;;;;5031946;28;20056;-87
2023/06/06 15:26:57;;;;;;;9.27;4.45;;;;;;;;;;4995349;28;20129;-87
2023/06/06 15:29:27;;;;;;;8.50;4.25;;;;;;;;;;5004892;28;20550;-87
2023/06/06 15:31:53;;;;;;;9.32;4.00;;;;;;;;;;5010819;28;20041;-87
2023/06/06 15:34:20;;;;;;;6.85;3.80;;;;;;;;;;5036766;28;20043;-87
2023/06/06 15:36:46;;;;;;;9.02;4.20;;;;;;;;;;5043381;28;20069;-87
2023/06/06 15:39:12;;;;;;;5.53;3.78;;;;;;;;;;5049973;28;20122;-87
2023/06/06 15:41:38;;;;;;;9.75;3.85;;;;;;;;;;5016938;28;20113;-88
2023/06/06 15:44:05;;;;;;;10.95;4.65;;;;;;;;;;5028325;28;20066;-87
2023/06/06 15:46:31;;;;;;;10.82;4.57;;;;;;;;;;5028188;28;20746;-87
2023/06/06 15:48:57;;;;;;;5.28;4.00;;;;;;;;;;5009572;28;21318;-88
2023/06/06 15:51:23;;;;;;;9.38;4.50;;;;;;;;;;5002210;28;20040;-88
2023/06/06 15:53:50;;;;;;;7.75;4.20;;;;;;;;;;5010855;28;20041;-88
2023/06/06 15:56:17;;;;;;;11.25;5.03;;;;;;;;;;5007366;28;20131;-86
2023/06/06 15:58:59;;;;;;;8.57;4.10;;;;;;;;;;5036444;28;20051;-87
2023/06/06 16:01:26;;;;;;;7.30;4.25;;;;;;;;;;5007922;28;20509;-88
2023/06/06 16:03:54;;;;;;;11.07;4.13;;;;;;;;;;4992729;28;20235;-88
2023/06/06 16:06:21;;;;;;;8.23;4.30;;;;;;;;;;4995729;28;20056;-88
2023/06/06 16:08:47;;;;;;;8.35;4.13;;;;;;;;;;5006692;28;20036;-88
2023/06/06 16:11:15;;;;;;;7.15;4.15;;;;;;;;;;5014273;28;20036;-89
2023/06/06 16:13:41;;;;;;;9.75;4.10;;;;;;;;;;5023812;28;20041;-89
2023/06/06 16:16:07;;;;;;;8.80;4.20;;;;;;;;;;5013569;28;20040;-89
2023/06/06 16:18:33;;;;;;;8.00;4.10;;;;;;;;;;4999939;28;20051;-89
2023/06/06 16:20:59;;;;;;;7.40;4.10;;;;;;;;;;5021817;28;20510;-89
2023/06/06 16:23:25;;;;;;;10.15;4.28;;;;;;;;;;5038757;28;20079;-90
2023/06/06 16:25:52;;;;;;;11.98;4.40;;;;;;;;;;5014576;28;20040;-90
2023/06/06 16:28:18;;;;;;;6.43;3.80;;;;;;;;;;5056429;28;20505;-89
2023/06/06 16:30:44;;;;;;;5.05;3.80;;;;;;;;;;5025315;28;20491;-90
2023/06/06 16:33:10;;;;;;;9.65;4.50;;;;;;;;;;5022649;28;20033;-90
2023/06/06 16:35:38;;;;;;;8.50;3.80;;;;;;;;;;5010252;28;20040;-90
2023/06/06 16:38:04;;;;;;;7.57;4.00;;;;;;;;;;5016542;28;20040;-89
2023/06/06 16:40:30;;;;;;;10.15;3.95;;;;;;;;;;5010960;28;20126;-89
2023/06/06 16:42:56;;;;;;;7.50;4.03;;;;;;;;;;5007964;28;22718;-89
2023/06/06 16:45:22;;;;;;;7.60;3.80;;;;;;;;;;5018530;28;20525;-89
2023/06/06 16:47:48;;;;;;;7.47;4.20;;;;;;;;;;5012867;28;20048;-89
2023/06/06 16:50:15;;;;;;;7.70;3.83;;;;;;;;;;5004989;28;20036;-89
2023/06/06 16:52:41;;;;;;;7.60;4.13;;;;;;;;;;5025692;28;20036;-88
2023/06/06 16:55:08;;;;;;;9.13;3.92;;;;;;;;;;5056872;28;20104;-88
2023/06/06 16:57:35;;;;;;;8.48;4.13;;;;;;;;;;5016438;28;20048;-88
2023/06/06 17:00:02;;;;;;;10.23;3.90;;;;;;;;;;5015870;28;20054;-88
2023/06/06 17:02:28;;;;;;;8.70;3.63;;;;;;;;;;5013434;28;20704;-89
2023/06/06 17:04:56;;;;;;;6.47;3.75;;;;;;;;;;5012899;28;20468;-89
2023/06/06 17:07:22;;;;;;;8.57;4.13;;;;;;;;;;5050595;28;20120;-89
2023/06/06 17:09:48;;;;;;;7.97;3.95;;;;;;;;;;5040868;28;20410;-89
2023/06/06 17:12:14;;;;;;;8.63;4.18;;;;;;;;;;5025665;28;20044;-89
2023/06/06 17:14:41;;;;;;;8.60;4.38;;;;;;;;;;5011165;28;20133;-89
2023/06/06 17:17:07;;;;;;;10.25;4.05;;;;;;;;;;5015317;28;20040;-89
2023/06/06 17:19:33;;;;;;;8.88;4.05;;;;;;;;;;5013084;28;20563;-89
2023/06/06 17:21:59;;;;;;;10.13;4.70;;;;;;;;;;5011718;28;20040;-88
2023/06/06 17:24:25;;;;;;;7.78;4.25;;;;;;;;;;5029790;28;20124;-89
2023/06/06 17:26:52;;;;;;;8.98;4.38;;;;;;;;;;5006176;28;20033;-88
2023/06/06 17:29:18;;;;;;;6.72;4.35;;;;;;;;;;5027982;28;20451;-89
2023/06/06 17:31:46;;;;;;;11.57;4.68;;;;;;;;;;5010481;28;20040;-88
2023/06/06 17:34:12;;;;;;;8.50;4.40;;;;;;;;;;5031968;28;20048;-88
2023/06/06 17:36:38;;;;;;;9.13;5.32;;;;;;;;;;5021501;28;20040;-88
2023/06/06 17:39:05;;;;;;;7.93;4.88;;;;;;;;;;5023130;28;20078;-85
2023/06/06 17:41:31;;;;;;;6.22;4.35;;;;;;;;;;5006472;28;21153;-85
2023/06/06 17:43:57;;;;;;;8.52;4.45;;;;;;;;;;5009643;28;20097;-85
2023/06/06 17:46:24;;;;;;;9.95;3.70;;;;;;;;;;5013015;28;20051;-84
2023/06/06 17:48:52;;;;;;;8.20;4.37;;;;;;;;;;4995745;28;20045;-85
2023/06/06 17:51:18;;;;;;;6.73;4.13;;;;;;;;;;5017087;28;20054;-85
2023/06/06 17:53:44;;;;;;;6.80;4.20;;;;;;;;;;5039904;28;20041;-85
2023/06/06 17:56:10;;;;;;;7.53;4.18;;;;;;;;;;5007666;28;20059;-85
2023/06/06 17:58:36;;;;;;;7.70;4.18;;;;;;;;;;5013840;28;20049;-85
2023/06/06 18:01:02;;;;;;;9.40;4.68;;;;;;;;;;5020263;28;20546;-86
2023/06/06 18:03:28;;;;;;;8.82;4.40;;;;;;;;;;5028441;28;21392;-85
2023/06/06 18:05:55;;;;;;;11.43;4.95;;;;;;;;;;5008750;28;20173;-85
2023/06/06 18:08:21;;;;;;;15.38;5.00;;;;;;;;;;5010498;28;20399;-85
2023/06/06 18:10:48;;;;;;;7.30;4.70;;;;;;;;;;5009870;28;20452;-85
2023/06/06 18:13:14;;;;;;;10.05;4.75;;;;;;;;;;5010707;28;20102;-85
2023/06/06 18:15:40;;;;;;;9.55;4.97;;;;;;;;;;5010105;28;20380;-85
2023/06/06 18:18:06;;;;;;;8.18;4.78;;;;;;;;;;5031110;28;20443;-85
2023/06/06 18:20:32;;;;;;;11.73;5.57;;;;;;;;;;5005179;28;20036;-85
2023/06/06 18:22:58;;;;;;;10.77;4.93;;;;;;;;;;5034184;28;20546;-85
2023/06/06 18:25:25;;;;;;;7.85;4.93;;;;;;;;;;5027684;28;20487;-85
2023/06/06 18:27:55;;;;;;;11.00;5.03;;;;;;;;;;5015352;28;20522;-85
2023/06/06 18:30:21;;;;;;;9.50;5.20;;;;;;;;;;4996684;28;20036;-85
2023/06/06 18:32:47;;;;;;;10.48;5.55;;;;;;;;;;5006558;28;20040;-85
2023/06/06 18:35:13;;;;;;;10.07;5.18;;;;;;;;;;5014526;28;20097;-84
2023/06/06 18:37:41;;;;;;;11.02;5.15;;;;;;;;;;5027011;28;20055;-84
2023/06/06 18:40:08;;;;;;;;;;;;;;;;;;5012239;28;20662;-84
2023/06/06 18:42:35;;;;;;;12.32;5.13;;;;;;;;;;5030819;28;19924;-85
2023/06/06 18:45:01;;;;;;;9.00;4.82;;;;;;;;;;5017579;28;20048;-84
2023/06/06 18:47:30;;;;;;;9.63;5.38;;;;;;;;;;5029765;28;20439;-84
2023/06/06 18:49:56;;;;;;;13.40;5.78;;;;;;;;;;5013073;28;20582;-84
2023/06/06 18:52:22;;;;;;;12.32;5.03;;;;;;;;;;5031029;28;20048;-84
2023/06/06 18:54:49;;;;;;;12.20;5.55;;;;;;;;;;5011548;28;20135;-84
2023/06/06 18:57:15;;;;;;;9.52;4.93;;;;;;;;;;5029956;28;20059;-84
2023/06/06 18:59:41;;;;;;;10.18;4.65;;;;;;;;;;5030453;28;20371;-85
2023/06/06 19:02:07;;;;;;;9.70;5.22;;;;;;;;;;5012856;28;20032;-85
2023/06/06 19:04:33;;;;;;;10.23;5.05;;;;;;;;;;5021112;28;20036;-85
2023/06/06 19:07:00;;;;;;;10.43;5.15;;;;;;;;;;5010567;28;20093;-84
2023/06/06 19:09:26;;;;;;;11.00;5.07;;;;;;;;;;5027455;28;20041;-85
2023/06/06 19:11:52;;;;;;;11.38;5.40;;;;;;;;;;5012377;28;20044;-84
2023/06/06 19:14:18;;;;;;;9.90;4.80;;;;;;;;;;5003169;28;20557;-84
2023/06/06 19:16:44;;;;;;;10.05;5.63;;;;;;;;;;5011927;28;20131;-85
2023/06/06 19:19:10;;;;;;;9.20;5.47;;;;;;;;;;5049553;28;20155;-85
2023/06/06 19:21:39;;;;;;;10.27;5.00;;;;;;;;;;5009594;28;20056;-85
2023/06/06 19:24:05;;;;;;;10.32;5.78;;;;;;;;;;5033826;28;20072;-84
2023/06/06 19:26:32;;;;;;;9.65;5.32;;;;;;;;;;5028821;28;20040;-85
2023/06/06 19:28:58;;;;;;;10.55;5.75;;;;;;;;;;5009033;28;20041;-85
2023/06/06 19:31:24;;;;;;;12.88;4.82;;;;;;;;;;5015958;28;20036;-84
2023/06/06 19:33:51;;;;;;;11.05;5.25;;;;;;;;;;5025739;28;20040;-85
2023/06/06 19:36:17;;;;;;;13.38;5.38;;;;;;;;;;5017685;28;20529;-84
2023/06/06 19:38:43;;;;;;;11.43;5.30;;;;;;;;;;5014593;28;20044;-85
2023/06/06 19:41:09;;;;;;;8.13;4.82;;;;;;;;;;5012971;28;20483;-84
2023/06/06 19:43:38;;;;;;;8.38;4.93;;;;;;;;;;5011283;28;20493;-84
2023/06/06 19:46:05;;;;;;;11.50;5.60;;;;;;;;;;5009927;28;20648;-85
2023/06/06 19:48:31;;;;;;;10.20;5.47;;;;;;;;;;4997739;28;20036;-85
2023/06/06 19:50:57;;;;;;;9.73;4.72;;;;;;;;;;5012581;28;20040;-85
2023/06/06 19:53:23;;;;;;;11.93;5.05;;;;;;;;;;5016748;28;20098;-85
2023/06/06 19:55:49;;;;;;;10.82;5.00;;;;;;;;;;5027719;28;20410;-85
2023/06/06 19:58:15;;;;;;;14.35;5.28;;;;;;;;;;5035648;28;20040;-86
2023/06/06 20:00:41;;;;;;;11.20;4.68;;;;;;;;;;5011877;28;20075;-85
2023/06/06 20:03:07;;;;;;;10.82;4.30;;;;;;;;;;5009244;28;20043;-85
2023/06/06 20:05:33;;;;;;;11.25;4.55;;;;;;;;;;5031025;28;20464;-86
2023/06/06 20:07:59;;;;;;;11.63;4.50;;;;;;;;;;5027875;28;20044;-86
2023/06/06 20:10:26;;;;;;;12.27;4.75;;;;;;;;;;5029231;28;20123;-85